Weather History for Ann Arbor, MI

Change the Weather History Date:

Thursday, January 2, 2014

  Actual Average Record
Temperature  
Mean Temperature 9 °F -  
Max Temperature 15 °F 31 °F 55 °F (2000)
Min Temperature 3 °F 16 °F -11 °F (2001)
Degree Days  
Heating Degree Days 56    
Moisture  
Dew Point 7 °F    
Average Humidity 78    
Maximum Humidity 85    
Minimum Humidity 66    
Precipitation  
Precipitation 0.01 in - - ()
Sea Level Pressure  
Sea Level Pressure 30.12 in    
Wind  
Wind Speed 14 mph (NNE)    
Max Wind Speed 22 mph    
Max Gust Speed 31 mph    
Visibility 3 miles    
Events Snow    
Averages and records for this station are not official NWS values.
T = Trace of Precipitation, MM = Missing Value Source: NWS Daily Summary

Daily Weather History Graph

Daily Weather History Graph

Search for Another Location

Airport:

Trip Planner

Search our weather history database for the weather conditions in past years. The results will help you decide how hot, cold, wet, or windy it might be!

Date:

Astronomy

Jan. 02, 2014 Rise Set
Actual Time 8:03 AM EST 5:14 PM EST
Civil Twilight 7:32 AM EST 5:46 PM EST
Nautical Twilight 6:56 AM EST 6:21 PM EST
Astronomical Twilight 6:22 AM EST 6:55 PM EST
Moon 8:42 AM EST (1/2) 7:12 PM EST (1/2)
Length of Visible Light 10h 14m
Length of Day
9h 10m
New Moon, 2% of the Moon is Illuminated
Jan 2
New Moon
Jan 7
First Quarter
Jan 15
Full
Jan 24
Last Quarter
Jan 30
New

Hourly Weather History & Observations

Time (EST) Temp. Windchill Dew Point Humidity Pressure Visibility Wind Dir Wind Speed Gust Speed Precip Events Conditions
12:00 AM 15.8 °F 2.1 °F 10.4 °F 79% 30.17 in 2.0 mi ENE 12.7 mph 19.6 mph 0.00 in Snow Light Snow
12:11 AM 15.8 °F 2.7 °F 10.4 °F 79% 30.17 in 1.5 mi ENE 11.5 mph - 0.00 in Snow Light Snow
12:29 AM 15.8 °F 2.7 °F 10.4 °F 79% 30.17 in 1.2 mi NE 11.5 mph - 0.00 in Snow Light Snow
12:44 AM 15.8 °F 2.1 °F 10.4 °F 79% 30.16 in 1.8 mi NE 12.7 mph 18.4 mph 0.00 in Snow Light Snow
12:53 AM 15.1 °F 1.1 °F 10.9 °F 84% 30.21 in 2.0 mi NE 12.7 mph - 0.00 in Snow Light Snow
1:10 AM 15.8 °F 2.7 °F 10.4 °F 79% 30.15 in 1.8 mi NE 11.5 mph - 0.00 in Snow Light Snow
1:21 AM 15.8 °F 1.4 °F 10.4 °F 79% 30.15 in 2.5 mi NE 13.8 mph - 0.00 in Snow Light Snow
1:36 AM 15.8 °F 1.4 °F 10.4 °F 79% 30.15 in 1.8 mi NE 13.8 mph - 0.00 in Snow Light Snow
1:53 AM 15.1 °F -0.1 °F 10.0 °F 80% 30.20 in 2.0 mi NE 15.0 mph 20.7 mph 0.00 in Snow Light Snow
2:39 AM 15.8 °F 3.4 °F 10.4 °F 79% 30.14 in 3.0 mi NE 10.4 mph - 0.00 in Snow Light Snow
2:46 AM 15.8 °F 5.1 °F 10.4 °F 79% 30.14 in 2.0 mi NE 8.1 mph - 0.00 in Snow Light Snow
2:53 AM 15.1 °F -0.6 °F 10.0 °F 80% 30.19 in 1.8 mi NE 16.1 mph - 0.00 in Snow Light Snow
3:53 AM 14.0 °F -0.2 °F 9.0 °F 80% 30.18 in 2.0 mi NE 12.7 mph - 0.00 in Snow Light Snow
4:38 AM 12.2 °F -3.1 °F 8.6 °F 85% 30.11 in 1.8 mi NE 13.8 mph 20.7 mph 0.00 in Snow Light Snow
4:53 AM 12.9 °F -2.8 °F 9.0 °F 84% 30.16 in 1.5 mi NE 15.0 mph - 0.00 in Snow Light Snow
5:04 AM 12.2 °F -3.1 °F 8.6 °F 85% 30.10 in 1.2 mi NE 13.8 mph - 0.00 in Snow Light Snow
5:16 AM 12.2 °F -3.1 °F 8.6 °F 85% 30.10 in 1.8 mi NE 13.8 mph 20.7 mph 0.00 in Snow Light Snow
5:23 AM 12.2 °F -5.3 °F 8.6 °F 85% 30.10 in 2.0 mi NE 18.4 mph 21.9 mph 0.00 in Snow Light Snow
5:53 AM 12.9 °F -2.8 °F 8.1 °F 81% 30.14 in 2.5 mi NE 15.0 mph 21.9 mph 0.00 in Snow Light Snow
6:02 AM 12.2 °F -4.3 °F 8.6 °F 85% 30.09 in 3.0 mi NE 16.1 mph 21.9 mph 0.00 in Snow Light Snow
6:29 AM 12.2 °F -3.1 °F 8.6 °F 85% 30.08 in 2.5 mi NE 13.8 mph - 0.00 in Snow Light Snow
6:53 AM 12.9 °F -2.8 °F 8.1 °F 81% 30.13 in 2.0 mi NE 15.0 mph 23.0 mph 0.00 in Snow Light Snow
7:14 AM 12.2 °F -3.1 °F 8.6 °F 85% 30.07 in 1.8 mi NE 13.8 mph 23.0 mph 0.00 in Snow Light Snow
7:53 AM 12.9 °F -2.2 °F 8.1 °F 81% 30.12 in 1.5 mi NE 13.8 mph 27.6 mph 0.00 in Snow Light Snow
8:22 AM 12.2 °F -4.3 °F 8.6 °F 85% 30.07 in 0.8 mi NE 16.1 mph 20.7 mph 0.00 in Snow Light Snow
8:32 AM 12.2 °F -4.3 °F 8.6 °F 85% 30.08 in 0.5 mi NE 16.1 mph 21.9 mph 0.00 in Snow Snow
8:53 AM 12.0 °F -5.1 °F 7.0 °F 80% 30.12 in 0.8 mi NNE 17.3 mph - 0.00 in Snow Light Snow
9:39 AM 12.2 °F -4.8 °F 6.8 °F 79% 30.08 in 0.8 mi NNE 17.3 mph 24.2 mph 0.00 in Snow Light Snow
9:53 AM 12.0 °F -5.1 °F 7.0 °F 80% 30.13 in 0.8 mi NNE 17.3 mph 24.2 mph 0.01 in Snow Light Snow
10:33 AM 12.2 °F -3.1 °F 6.8 °F 79% 30.09 in 1.0 mi NNE 13.8 mph 21.9 mph 0.00 in Snow Light Snow
10:53 AM 12.0 °F -5.6 °F 7.0 °F 80% 30.14 in 1.0 mi NNE 18.4 mph 24.2 mph 0.00 in Snow Light Snow
11:53 AM 12.9 °F -3.4 °F 7.0 °F 77% 30.12 in 1.0 mi NNE 16.1 mph 24.2 mph 0.00 in Snow Light Snow
12:19 PM 12.2 °F -3.7 °F 6.8 °F 79% 30.07 in 1.5 mi NNE 15.0 mph - 0.00 in Snow Light Snow
12:32 PM 12.2 °F -3.1 °F 6.8 °F 79% 30.06 in 1.2 mi NNE 13.8 mph 21.9 mph 0.00 in Snow Light Snow
12:53 PM 12.9 °F -5.7 °F 6.1 °F 74% 30.11 in 1.0 mi NNE 21.9 mph 29.9 mph 0.00 in Snow Light Snow
1:15 PM 12.2 °F -4.3 °F 6.8 °F 79% 30.05 in 1.8 mi NNE 16.1 mph - 0.00 in Snow Light Snow
1:26 PM 14.0 °F -3.4 °F 6.8 °F 73% 30.04 in 2.0 mi NNE 19.6 mph 24.2 mph 0.00 in Snow Light Snow
1:34 PM 14.0 °F -1.4 °F 6.8 °F 73% 30.04 in 2.0 mi NE 15.0 mph 24.2 mph 0.00 in Snow Light Snow
1:53 PM 15.1 °F 1.1 °F 8.1 °F 74% 30.09 in 2.0 mi NNE 12.7 mph - 0.00 in Snow Light Snow
2:10 PM 15.8 °F 0.3 °F 8.6 °F 73% 30.04 in 1.5 mi NNE 16.1 mph 23.0 mph 0.00 in Snow Light Snow
2:17 PM 15.8 °F 0.9 °F 8.6 °F 73% 30.03 in 0.8 mi NNE 15.0 mph 23.0 mph 0.00 in Snow Light Snow
2:34 PM 15.8 °F -0.6 °F 8.6 °F 73% 30.03 in 1.5 mi North 18.4 mph 24.2 mph 0.00 in Snow Light Snow
2:37 PM 15.8 °F -1.5 °F 8.6 °F 73% 30.03 in 2.0 mi NNE 20.7 mph 31.1 mph 0.00 in Snow Light Snow
2:42 PM 15.8 °F -0.6 °F 6.8 °F 68% 30.03 in 3.0 mi NNE 18.4 mph 31.1 mph 0.00 in Snow Light Snow
2:53 PM 15.1 °F -1.1 °F 6.1 °F 68% 30.08 in 5.0 mi NNE 17.3 mph 24.2 mph 0.00 in   Haze
3:53 PM 14.0 °F -1.4 °F 6.1 °F 71% 30.10 in 8.0 mi North 15.0 mph 29.9 mph 0.00 in   Overcast
4:34 PM 14.0 °F -1.4 °F 6.8 °F 73% 30.07 in 2.0 mi North 15.0 mph 23.0 mph 0.00 in Snow Light Snow
4:53 PM 12.0 °F -5.1 °F 6.1 °F 77% 30.13 in 1.5 mi North 17.3 mph 24.2 mph 0.00 in Snow Light Snow
5:12 PM 10.4 °F -5.4 °F 5.0 °F 79% 30.09 in 2.5 mi North 13.8 mph 25.3 mph 0.00 in Snow Light Snow
5:19 PM 10.4 °F -6.0 °F 5.0 °F 79% 30.09 in 3.0 mi North 15.0 mph 23.0 mph 0.00 in Snow Light Snow
5:37 PM 10.4 °F -6.6 °F 5.0 °F 79% 30.11 in 5.0 mi North 16.1 mph 24.2 mph 0.00 in   Haze
5:53 PM 10.9 °F -5.4 °F 5.0 °F 77% 30.17 in 5.0 mi North 15.0 mph 24.2 mph 0.00 in Snow Light Snow
6:53 PM 10.0 °F -6.5 °F 3.0 °F 73% 30.20 in 8.0 mi North 15.0 mph 27.6 mph 0.00 in   Overcast
7:53 PM 9.0 °F -10.5 °F 1.9 °F 73% 30.24 in 5.0 mi North 20.7 mph 26.5 mph N/A   Haze
8:53 PM 8.1 °F -8.4 °F -0.0 °F 70% 30.26 in 10.0 mi North 13.8 mph 23.0 mph N/A   Mostly Cloudy
9:53 PM 6.1 °F -11.6 °F -2.9 °F 67% 30.28 in 10.0 mi North 15.0 mph 23.0 mph N/A   Overcast
10:53 PM 3.9 °F -12.2 °F -5.1 °F 66% 30.28 in 10.0 mi North 11.5 mph 20.7 mph N/A   Clear
11:53 PM 3.0 °F -12.5 °F -6.0 °F 66% 30.30 in 10.0 mi North 10.4 mph - N/A   Clear